Time;durP1;ratioP1;P1;durP2;ratioP2;P2;SDS_P1;SDS_P2;PMS_P1;PMS_P2;Temp;Humidity;BMP_temperature;BMP_pressure;BME280_temperature;BME280_humidity;BME280_pressure;Samples;Min_cycle;Max_cycle;Signal;HPM_P1;HPM_P2
2022/10/23 00:01:44;;;;;;;21.90;12.47;;;10.80;99.90;;;;;;5010518;28;20232;-79
2022/10/23 00:04:13;;;;;;;21.03;13.27;;;10.70;99.90;;;;;;4999800;28;20242;-79
2022/10/23 00:06:40;;;;;;;19.27;12.30;;;10.70;99.90;;;;;;4998869;28;20596;-79
2022/10/23 00:09:09;;;;;;;21.13;12.80;;;10.70;99.90;;;;;;5013353;28;20234;-80
2022/10/23 00:11:36;;;;;;;19.27;12.70;;;10.80;99.90;;;;;;5005349;28;20221;-80
2022/10/23 00:14:05;;;;;;;18.07;13.10;;;10.80;99.90;;;;;;5004415;28;20384;-80
2022/10/23 00:16:34;;;;;;;25.10;13.13;;;10.80;99.90;;;;;;4997750;28;20232;-80
2022/10/23 00:19:00;;;;;;;17.17;12.03;;;10.80;99.90;;;;;;5019277;28;20229;-80
2022/10/23 00:21:27;;;;;;;19.87;12.67;;;10.80;99.90;;;;;;5023099;28;20231;-80
2022/10/23 00:23:54;;;;;;;20.40;13.30;;;10.80;99.90;;;;;;5003443;28;20228;-80
2022/10/23 00:26:21;;;;;;;23.13;12.97;;;10.80;99.90;;;;;;5005921;28;20234;-80
2022/10/23 00:28:50;;;;;;;16.50;12.40;;;10.70;99.90;;;;;;5002077;28;20230;-80
2022/10/23 00:31:17;;;;;;;24.60;13.03;;;10.70;99.90;;;;;;5005294;28;20239;-80
2022/10/23 00:33:46;;;;;;;19.00;12.70;;;10.70;99.90;;;;;;5005043;28;20743;-80
2022/10/23 00:36:14;;;;;;;18.80;12.70;;;10.60;99.90;;;;;;5021899;28;20237;-81
2022/10/23 00:38:44;;;;;;;20.37;12.63;;;10.60;99.90;;;;;;5007149;28;20252;-80
2022/10/23 00:41:15;;;;;;;20.97;14.00;;;10.50;99.90;;;;;;5008510;28;20661;-80
2022/10/23 00:43:56;;;;;;;23.70;14.60;;;10.50;99.90;;;;;;5003380;28;20238;-81
2022/10/23 00:46:24;;;;;;;26.27;14.53;;;10.50;99.90;;;;;;5015230;28;20213;-81
2022/10/23 00:48:52;;;;;;;23.97;13.20;;;10.50;99.90;;;;;;5023221;28;20571;-81
2022/10/23 00:51:19;;;;;;;16.17;13.60;;;10.50;99.90;;;;;;5008233;28;20251;-81
2022/10/23 00:53:49;;;;;;;21.50;12.90;;;10.50;99.90;;;;;;5017606;28;20238;-80
2022/10/23 00:56:16;;;;;;;19.97;13.70;;;10.40;99.90;;;;;;5007249;28;20245;-80
2022/10/23 00:58:43;;;;;;;22.13;12.77;;;10.40;99.90;;;;;;5004070;28;20243;-80
2022/10/23 01:01:18;;;;;;;20.13;13.03;;;10.40;99.90;;;;;;5007346;28;20230;-81
2022/10/23 01:03:47;;;;;;;17.77;13.07;;;10.40;99.90;;;;;;5005234;28;20282;-80
2022/10/23 01:06:33;;;;;;;19.27;13.60;;;10.40;99.90;;;;;;5007736;28;20226;-80
2022/10/23 01:09:05;;;;;;;29.50;12.73;;;10.40;99.90;;;;;;5019410;28;20224;-80
2022/10/23 01:11:39;;;;;;;29.50;12.80;;;10.30;99.90;;;;;;5027667;28;20312;-80
2022/10/23 01:14:14;;;;;;;16.43;12.60;;;10.30;99.90;;;;;;5018894;28;20256;-80
2022/10/23 01:16:49;;;;;;;19.60;13.03;;;10.30;99.90;;;;;;5008511;28;20246;-80
2022/10/23 01:19:25;;;;;;;20.30;11.90;;;10.20;99.90;;;;;;5023282;28;20232;-79
2022/10/23 01:22:08;;;;;;;21.07;12.83;;;10.20;99.90;;;;;;5006113;28;20276;-80
2022/10/23 01:24:44;;;;;;;15.63;10.83;;;10.20;99.90;;;;;;5000649;28;20233;-78
2022/10/23 01:27:22;;;;;;;20.00;12.37;;;10.20;99.90;;;;;;5018591;28;20249;-78
2022/10/23 01:29:58;;;;;;;25.43;11.67;;;10.10;99.90;;;;;;5021594;28;20236;-78
2022/10/23 01:32:38;;;;;;;16.17;12.40;;;10.10;99.90;;;;;;5017447;28;20216;-79
2022/10/23 01:35:11;;;;;;;13.70;11.30;;;10.00;99.90;;;;;;5001881;28;20225;-79
2022/10/23 01:37:42;;;;;;;19.00;11.73;;;10.00;99.90;;;;;;4996635;28;20228;-79
2022/10/23 01:40:19;;;;;;;18.43;12.50;;;10.00;99.90;;;;;;5002326;28;20233;-78
2022/10/23 01:42:52;;;;;;;18.63;12.33;;;10.00;99.90;;;;;;5019841;28;20282;-78
2022/10/23 01:45:28;;;;;;;18.30;13.47;;;9.90;99.90;;;;;;5016853;28;20335;-78
2022/10/23 01:47:56;;;;;;;18.57;12.97;;;9.90;99.90;;;;;;4997512;28;20223;-78
2022/10/23 01:50:26;;;;;;;22.77;13.63;;;9.90;99.90;;;;;;5004461;28;20221;-78
2022/10/23 01:52:59;;;;;;;24.03;13.13;;;9.90;99.90;;;;;;5004027;28;20223;-78
2022/10/23 01:55:27;;;;;;;24.03;13.53;;;10.00;99.90;;;;;;5012701;28;20232;-79
2022/10/23 01:57:56;;;;;;;42.87;14.40;;;10.00;99.90;;;;;;5001832;28;21063;-79
2022/10/23 02:00:34;;;;;;;37.63;14.90;;;10.00;99.90;;;;;;5020483;28;20760;-80
2022/10/23 02:03:03;;;;;;;47.27;15.63;;;10.00;99.90;;;;;;5015784;28;20333;-79
2022/10/23 02:05:33;;;;;;;52.43;15.50;;;10.00;99.90;;;;;;4996736;28;20241;-79
2022/10/23 02:08:03;;;;;;;38.23;14.70;;;10.00;99.90;;;;;;4997428;28;20273;-79
2022/10/23 02:10:34;;;;;;;64.70;16.13;;;10.10;99.90;;;;;;5004103;28;20237;-80
2022/10/23 02:13:08;;;;;;;38.73;15.77;;;10.10;99.90;;;;;;5022388;28;20307;-79
2022/10/23 02:15:39;;;;;;;48.97;16.83;;;10.10;99.90;;;;;;5002934;28;20259;-79
2022/10/23 02:18:12;;;;;;;31.67;15.47;;;10.10;99.90;;;;;;5011418;28;20301;-79
2022/10/23 02:20:43;;;;;;;36.23;16.20;;;10.10;99.90;;;;;;5024328;28;20246;-80
2022/10/23 02:23:20;;;;;;;32.37;15.40;;;10.10;99.90;;;;;;5019932;28;20243;-80
2022/10/23 02:25:53;;;;;;;27.07;15.53;;;10.10;99.90;;;;;;5000922;28;20228;-79
2022/10/23 02:28:26;;;;;;;23.20;15.17;;;10.10;99.90;;;;;;4995275;28;20291;-78
2022/10/23 02:30:59;;;;;;;22.83;14.43;;;10.10;99.90;;;;;;5000693;28;20231;-79
2022/10/23 02:33:30;;;;;;;21.37;13.23;;;10.10;99.90;;;;;;4998602;28;20232;-79
2022/10/23 02:35:57;;;;;;;22.63;14.27;;;10.20;99.90;;;;;;5007663;28;20228;-79
2022/10/23 02:38:34;;;;;;;25.60;14.03;;;10.20;99.90;;;;;;4998787;28;20239;-80
2022/10/23 02:41:12;;;;;;;21.73;13.00;;;10.20;99.90;;;;;;5004887;28;21011;-79
2022/10/23 02:43:50;;;;;;;23.67;12.90;;;10.20;99.90;;;;;;5011470;28;20307;-79
2022/10/23 02:46:25;;;;;;;28.37;14.43;;;10.20;99.90;;;;;;4997115;28;20938;-80
2022/10/23 02:49:00;;;;;;;23.70;13.57;;;10.20;99.90;;;;;;5001417;28;20570;-80
2022/10/23 02:51:35;;;;;;;24.33;14.33;;;10.20;99.90;;;;;;4999994;28;20231;-80
2022/10/23 02:54:07;;;;;;;26.20;14.37;;;10.10;99.90;;;;;;5016748;28;20224;-80
2022/10/23 02:56:43;;;;;;;26.47;14.57;;;10.10;99.90;;;;;;5016884;28;20327;-80
2022/10/23 02:59:18;;;;;;;37.13;14.97;;;10.10;99.90;;;;;;5020144;28;20228;-80
2022/10/23 03:01:50;;;;;;;40.87;15.07;;;10.10;99.90;;;;;;5005352;28;20239;-80
2022/10/23 03:04:21;;;;;;;29.03;13.97;;;10.10;99.90;;;;;;5003049;28;20330;-79
2022/10/23 03:06:49;;;;;;;29.03;13.43;;;10.10;99.90;;;;;;5006467;28;20230;-79
2022/10/23 03:09:17;;;;;;;31.80;13.93;;;10.10;99.90;;;;;;5017286;28;20847;-80
2022/10/23 03:11:44;;;;;;;30.00;14.10;;;10.10;99.90;;;;;;5001434;28;20224;-80
2022/10/23 03:14:13;;;;;;;28.60;13.83;;;10.00;99.90;;;;;;5002870;28;20213;-80
2022/10/23 03:16:40;;;;;;;25.40;13.47;;;10.00;99.90;;;;;;5000463;28;20882;-79
2022/10/23 03:19:08;;;;;;;20.90;12.93;;;10.00;99.90;;;;;;5005214;28;20649;-80
2022/10/23 03:21:35;;;;;;;24.03;13.80;;;10.00;99.90;;;;;;5007377;28;20230;-81
2022/10/23 03:24:06;;;;;;;22.77;12.93;;;10.00;99.90;;;;;;5022211;28;20294;-81
2022/10/23 03:26:38;;;;;;;21.40;12.10;;;10.00;99.90;;;;;;5005168;28;20239;-79
2022/10/23 03:29:05;;;;;;;17.43;13.00;;;9.90;99.90;;;;;;5013731;28;20253;-80
2022/10/23 03:31:36;;;;;;;18.80;12.10;;;9.90;99.90;;;;;;5021381;28;20272;-79
2022/10/23 03:34:08;;;;;;;20.30;12.73;;;9.90;99.90;;;;;;5010491;28;20409;-80
2022/10/23 03:36:35;;;;;;;17.93;12.80;;;9.80;99.90;;;;;;5017182;28;20243;-80
2022/10/23 03:39:03;;;;;;;19.70;12.60;;;9.80;99.90;;;;;;5015622;28;20233;-79
2022/10/23 03:41:30;;;;;;;17.60;12.50;;;9.80;99.90;;;;;;5003210;28;20229;-79
2022/10/23 03:43:57;;;;;;;17.90;11.20;;;9.70;99.90;;;;;;4996806;28;20312;-79
2022/10/23 03:46:24;;;;;;;18.03;11.37;;;9.70;99.90;;;;;;5000874;28;20230;-80
2022/10/23 03:48:57;;;;;;;17.93;11.13;;;9.70;99.90;;;;;;5021466;28;20228;-79
2022/10/23 03:51:23;;;;;;;19.70;11.97;;;9.60;99.90;;;;;;5000375;28;20223;-79
2022/10/23 03:53:50;;;;;;;24.20;12.77;;;9.60;99.90;;;;;;5012273;28;20221;-78
2022/10/23 03:56:17;;;;;;;17.23;11.13;;;9.60;99.90;;;;;;5001763;28;20217;-79
2022/10/23 03:58:44;;;;;;;16.90;11.53;;;9.60;99.90;;;;;;5010954;28;20232;-79
2022/10/23 04:01:13;;;;;;;17.03;11.43;;;9.50;99.90;;;;;;4986905;28;20244;-79
2022/10/23 04:03:39;;;;;;;16.17;10.80;;;9.50;99.90;;;;;;5005736;28;20239;-78
2022/10/23 04:06:08;;;;;;;16.63;11.57;;;9.50;99.90;;;;;;5015032;28;20625;-79
2022/10/23 04:08:34;;;;;;;16.13;10.47;;;9.50;99.90;;;;;;5019335;28;20236;-80
2022/10/23 04:11:03;;;;;;;15.33;11.53;;;9.40;99.90;;;;;;5009462;28;20331;-80
2022/10/23 04:13:35;;;;;;;20.83;12.43;;;9.40;99.90;;;;;;5003883;28;20634;-80
2022/10/23 04:16:02;;;;;;;15.80;11.30;;;9.40;99.90;;;;;;5022007;28;20318;-80
2022/10/23 04:18:29;;;;;;;17.07;11.83;;;9.40;99.90;;;;;;5003943;28;20892;-80
2022/10/23 04:20:56;;;;;;;19.87;11.27;;;9.40;99.90;;;;;;5007324;28;20315;-80
2022/10/23 04:23:24;;;;;;;15.90;11.40;;;9.40;99.90;;;;;;5019277;28;20259;-80
2022/10/23 04:25:51;;;;;;;15.70;11.33;;;9.40;99.90;;;;;;5007103;28;20217;-80
2022/10/23 04:28:21;;;;;;;20.33;12.20;;;9.30;99.90;;;;;;5017930;28;20233;-80
2022/10/23 04:30:47;;;;;;;17.73;10.83;;;9.30;99.90;;;;;;5006048;28;20236;-80
2022/10/23 04:33:14;;;;;;;16.37;12.03;;;9.30;99.90;;;;;;5015858;28;20216;-80
2022/10/23 04:35:41;;;;;;;18.70;11.50;;;9.30;99.90;;;;;;5006645;28;20229;-80
2022/10/23 04:38:08;;;;;;;16.30;11.17;;;9.30;99.90;;;;;;5021233;28;20230;-81
2022/10/23 04:40:36;;;;;;;20.30;10.90;;;9.20;99.90;;;;;;5025900;28;20245;-83
2022/10/23 04:43:03;;;;;;;32.23;11.13;;;9.20;99.90;;;;;;5024445;28;20271;-83
2022/10/23 04:45:33;;;;;;;26.70;11.83;;;9.20;99.90;;;;;;5015526;28;20280;-83
2022/10/23 04:48:00;;;;;;;18.57;10.37;;;9.20;99.90;;;;;;5024312;28;20366;-84
2022/10/23 04:50:30;;;;;;;84.70;15.37;;;9.10;99.90;;;;;;5004749;28;20225;-83
2022/10/23 04:53:17;;;;;;;15.03;9.47;;;9.20;99.90;;;;;;5008798;28;20232;-83
2022/10/23 04:56:01;;;;;;;32.03;9.53;;;9.10;99.90;;;;;;5024684;28;20235;-83
2022/10/23 04:58:36;;;;;;;26.93;8.97;;;9.00;99.90;;;;;;5007717;28;20248;-84
2022/10/23 05:01:02;;;;;;;30.60;9.27;;;9.00;99.90;;;;;;5017251;28;20223;-83
2022/10/23 05:03:29;;;;;;;10.33;8.60;;;8.90;99.90;;;;;;5023743;28;20233;-83
2022/10/23 05:05:56;;;;;;;37.63;10.60;;;8.90;99.90;;;;;;5030107;28;20289;-83
2022/10/23 05:08:58;;;;;;;12.47;9.10;;;8.90;99.90;;;;;;5009566;28;20242;-84
2022/10/23 05:11:58;;;;;;;17.27;9.43;;;8.80;99.90;;;;;;5012329;28;20225;-82
2022/10/23 05:14:25;;;;;;;11.67;8.40;;;8.80;99.90;;;;;;5005822;28;20355;-83
2022/10/23 05:16:54;;;;;;;14.60;9.87;;;8.70;99.90;;;;;;5035333;28;20236;-83
2022/10/23 05:19:27;;;;;;;14.67;9.07;;;8.70;99.90;;;;;;5009811;28;20275;-82
2022/10/23 05:21:55;;;;;;;13.80;8.83;;;8.70;99.90;;;;;;5011742;28;20331;-85
2022/10/23 05:24:26;;;;;;;14.50;9.93;;;8.70;99.90;;;;;;5014020;28;20307;-83
2022/10/23 05:26:59;;;;;;;13.60;9.73;;;8.60;99.90;;;;;;5012666;28;20231;-83
2022/10/23 05:29:25;;;;;;;15.60;10.47;;;8.60;99.90;;;;;;5026723;28;21113;-84
2022/10/23 05:31:58;;;;;;;13.17;9.67;;;8.60;99.90;;;;;;5018257;28;20225;-84
2022/10/23 05:34:31;;;;;;;12.93;9.50;;;8.60;99.90;;;;;;5025516;28;20269;-83
2022/10/23 05:36:59;;;;;;;31.87;9.50;;;8.50;99.90;;;;;;5013755;28;20267;-83
2022/10/23 05:39:26;;;;;;;12.13;7.80;;;8.50;99.90;;;;;;5026196;28;20598;-83
2022/10/23 05:41:53;;;;;;;11.63;9.50;;;8.50;99.90;;;;;;5007315;28;20231;-83
2022/10/23 05:44:24;;;;;;;16.33;10.27;;;8.50;99.90;;;;;;5025756;28;20307;-83
2022/10/23 05:46:54;;;;;;;13.70;9.77;;;8.50;99.90;;;;;;5010501;28;20229;-83
2022/10/23 05:49:46;;;;;;;16.33;9.77;;;8.40;99.90;;;;;;5009109;28;20262;-83
2022/10/23 05:52:39;;;;;;;13.10;9.50;;;8.40;99.90;;;;;;5009596;28;20228;-83
2022/10/23 05:55:32;;;;;;;9.77;7.33;;;8.40;99.90;;;;;;5013767;28;20786;-83
2022/10/23 05:58:09;;;;;;;8.30;7.07;;;8.30;99.90;;;;;;5010667;28;20248;-82
2022/10/23 06:01:06;;;;;;;16.17;9.37;;;8.30;99.90;;;;;;5014295;28;20319;-83
2022/10/23 06:03:58;;;;;;;16.37;13.30;;;8.20;99.90;;;;;;5020960;28;20753;-83
2022/10/23 06:06:35;;;;;;;15.83;10.47;;;8.20;99.90;;;;;;5022717;28;20308;-82
2022/10/23 06:09:02;;;;;;;14.83;10.10;;;8.20;99.90;;;;;;5010606;28;20220;-81
2022/10/23 06:11:31;;;;;;;15.23;10.33;;;8.20;99.90;;;;;;5005615;28;20288;-82
2022/10/23 06:14:03;;;;;;;15.53;10.43;;;8.20;99.90;;;;;;5012804;28;20224;-82
2022/10/23 06:16:32;;;;;;;13.73;10.07;;;8.10;99.90;;;;;;5008509;28;20799;-82
2022/10/23 06:18:59;;;;;;;15.40;9.80;;;8.10;99.90;;;;;;5020547;28;20217;-82
2022/10/23 06:21:27;;;;;;;16.03;9.77;;;8.10;99.90;;;;;;5014527;28;20595;-82
2022/10/23 06:23:55;;;;;;;14.17;10.53;;;8.10;99.90;;;;;;5026683;28;20223;-82
2022/10/23 06:26:37;;;;;;;14.83;10.97;;;8.10;99.90;;;;;;5003096;28;20706;-83
2022/10/23 06:29:10;;;;;;;14.80;10.20;;;8.10;99.90;;;;;;5016997;28;20227;-83
2022/10/23 06:31:39;;;;;;;13.87;9.97;;;8.20;99.90;;;;;;5012809;28;21034;-83
2022/10/23 06:34:06;;;;;;;17.07;10.90;;;8.20;99.90;;;;;;4998091;28;20265;-83
2022/10/23 06:36:33;;;;;;;13.37;9.13;;;8.20;99.90;;;;;;4999689;28;20230;-83
2022/10/23 06:39:10;;;;;;;12.10;8.67;;;8.20;99.90;;;;;;5015990;28;20230;-83
2022/10/23 06:41:53;;;;;;;15.03;8.80;;;8.20;99.90;;;;;;5002601;28;20306;-83
2022/10/23 06:44:53;;;;;;;13.50;9.10;;;8.20;99.90;;;;;;4980892;28;20236;-82
2022/10/23 06:47:44;;;;;;;11.67;8.47;;;8.20;99.90;;;;;;4997209;28;20243;-84
2022/10/23 06:50:34;;;;;;;11.40;8.83;;;8.30;99.90;;;;;;5004100;28;20223;-84
2022/10/23 06:53:06;;;;;;;13.93;9.20;;;8.20;99.90;;;;;;5006111;28;20255;-83
2022/10/23 06:55:38;;;;;;;15.10;9.40;;;8.30;99.90;;;;;;5017386;28;20223;-83
2022/10/23 06:58:09;;;;;;;12.53;9.20;;;8.30;99.90;;;;;;5020770;28;20318;-84
2022/10/23 07:00:37;;;;;;;15.83;10.40;;;8.30;99.90;;;;;;5006912;28;20231;-83
2022/10/23 07:03:07;;;;;;;14.27;10.13;;;8.30;99.90;;;;;;4995586;28;20259;-86
2022/10/23 07:05:34;;;;;;;13.77;9.67;;;8.30;99.90;;;;;;5006815;28;20772;-83
2022/10/23 07:08:03;;;;;;;16.83;9.90;;;8.30;99.90;;;;;;5005670;28;20235;-83
2022/10/23 07:10:36;;;;;;;12.90;9.10;;;8.40;99.90;;;;;;5022454;28;20235;-83
2022/10/23 07:13:04;;;;;;;13.60;9.07;;;8.40;99.90;;;;;;5005396;28;20225;-83
2022/10/23 07:15:50;;;;;;;14.57;8.93;;;8.40;99.90;;;;;;5007906;28;20227;-83
2022/10/23 07:18:23;;;;;;;13.87;8.97;;;8.50;99.90;;;;;;5005276;28;21081;-83
2022/10/23 07:21:09;;;;;;;14.27;8.77;;;8.50;99.90;;;;;;5006453;28;20231;-83
2022/10/23 07:23:39;;;;;;;20.30;9.07;;;8.60;99.90;;;;;;5005006;28;20717;-83
2022/10/23 07:26:08;;;;;;;14.27;8.90;;;8.60;99.90;;;;;;5020639;28;20232;-84
2022/10/23 07:28:36;;;;;;;11.23;8.10;;;8.70;99.90;;;;;;5007880;28;20234;-82
2022/10/23 07:31:03;;;;;;;14.60;8.70;;;8.70;99.90;;;;;;5023215;28;20218;-82
2022/10/23 07:33:54;;;;;;;13.80;8.53;;;8.80;99.90;;;;;;5007250;28;20301;-82
2022/10/23 07:36:21;;;;;;;14.00;8.00;;;8.90;99.90;;;;;;5024731;28;20243;-84
2022/10/23 07:38:48;;;;;;;11.57;7.87;;;9.00;99.90;;;;;;5002741;28;20319;-82
2022/10/23 07:41:14;;;;;;;12.27;8.67;;;9.10;99.90;;;;;;5016691;28;20347;-82
2022/10/23 07:43:41;;;;;;;13.47;8.50;;;9.20;99.90;;;;;;5016561;28;20384;-81
2022/10/23 07:46:09;;;;;;;13.87;8.70;;;9.30;99.90;;;;;;5000337;28;20221;-80
2022/10/23 07:48:39;;;;;;;17.07;9.13;;;9.40;99.90;;;;;;5023232;28;20232;-82
2022/10/23 07:51:12;;;;;;;13.20;9.37;;;9.50;99.90;;;;;;5009825;28;20224;-80
2022/10/23 07:53:48;;;;;;;19.57;8.90;;;9.70;99.90;;;;;;5008065;28;20833;-82
2022/10/23 07:56:50;;;;;;;14.77;8.77;;;9.80;99.90;;;;;;4962092;28;20224;-81
2022/10/23 07:59:36;;;;;;;14.80;8.73;;;9.90;99.90;;;;;;5015094;28;20239;-81
2022/10/23 08:02:10;;;;;;;12.23;8.33;;;10.10;99.90;;;;;;5018720;28;20222;-81
2022/10/23 08:04:37;;;;;;;11.50;7.93;;;10.20;99.90;;;;;;5025891;28;20253;-81
2022/10/23 08:07:15;;;;;;;12.07;8.03;;;10.30;99.90;;;;;;5004535;28;20511;-81
2022/10/23 08:09:44;;;;;;;15.20;8.00;;;10.40;99.90;;;;;;5002822;28;20376;-82
2022/10/23 08:12:11;;;;;;;11.60;7.60;;;10.50;99.90;;;;;;5006107;28;20250;-81
2022/10/23 08:14:38;;;;;;;10.90;8.03;;;10.60;99.90;;;;;;5005011;28;20249;-81
2022/10/23 08:17:08;;;;;;;10.63;7.87;;;10.70;99.90;;;;;;5004038;28;20229;-81
2022/10/23 08:19:53;;;;;;;9.67;7.07;;;10.80;99.90;;;;;;5005445;28;20244;-81
2022/10/23 08:22:22;;;;;;;11.83;7.83;;;11.00;99.90;;;;;;5018979;28;20217;-81
2022/10/23 08:24:48;;;;;;;10.57;7.57;;;11.20;99.90;;;;;;5009737;28;20243;-81
2022/10/23 08:27:16;;;;;;;11.93;7.30;;;11.40;99.90;;;;;;5026238;28;20249;-81
2022/10/23 08:29:45;;;;;;;9.63;6.83;;;11.60;99.90;;;;;;5019845;28;20230;-81
2022/10/23 08:32:12;;;;;;;9.47;7.07;;;11.90;99.90;;;;;;5022483;28;20238;-81
2022/10/23 08:34:54;;;;;;;9.67;6.10;;;12.30;99.90;;;;;;5021367;28;20231;-82
2022/10/23 08:37:24;;;;;;;9.07;6.53;;;12.80;99.90;;;;;;5002115;28;20785;-81
2022/10/23 08:39:53;;;;;;;9.90;6.40;;;13.30;99.90;;;;;;5008317;28;20712;-81
2022/10/23 08:42:47;;;;;;;7.83;5.90;;;13.80;99.90;;;;;;4995563;28;20241;-81
2022/10/23 08:45:28;;;;;;;8.23;5.20;;;14.50;99.90;;;;;;5019042;28;20229;-81
2022/10/23 08:48:10;;;;;;;7.27;4.93;;;15.10;99.90;;;;;;5007361;28;20229;-84
2022/10/23 08:51:16;;;;;;;6.83;4.73;;;15.60;99.90;;;;;;5003964;28;20236;-82
2022/10/23 08:53:52;;;;;;;10.93;4.90;;;16.10;99.90;;;;;;5015251;28;20256;-82
2022/10/23 08:56:25;;;;;;;7.60;4.50;;;16.40;99.90;;;;;;5003263;28;20230;-84
2022/10/23 08:58:58;;;;;;;7.37;4.30;;;16.60;99.90;;;;;;5013237;28;20704;-82
2022/10/23 09:01:34;;;;;;;8.53;4.47;;;16.70;99.90;;;;;;5010504;28;20240;-82
2022/10/23 09:04:02;;;;;;;7.73;4.20;;;16.70;99.90;;;;;;5019256;28;20243;-82
2022/10/23 09:06:35;;;;;;;6.63;4.30;;;16.80;99.90;;;;;;5010821;28;20247;-82
2022/10/23 09:09:20;;;;;;;5.63;3.77;;;16.80;99.90;;;;;;5006028;28;20224;-82
2022/10/23 09:11:55;;;;;;;6.90;4.40;;;16.90;99.90;;;;;;5008313;28;20220;-82
2022/10/23 09:14:42;;;;;;;7.47;3.57;;;16.90;99.90;;;;;;5008195;28;20226;-82
2022/10/23 09:17:16;;;;;;;7.23;3.93;;;16.80;99.90;;;;;;5012699;28;20267;-82
2022/10/23 09:19:45;;;;;;;10.33;4.30;;;16.80;99.90;;;;;;5001696;28;20234;-82
2022/10/23 09:22:12;;;;;;;6.30;3.83;;;16.80;99.90;;;;;;5005515;28;20583;-81
2022/10/23 09:24:42;;;;;;;5.70;3.80;;;16.80;99.90;;;;;;5004264;28;20233;-83
2022/10/23 09:27:14;;;;;;;6.20;3.20;;;16.70;99.90;;;;;;5002610;28;20228;-81
2022/10/23 09:29:48;;;;;;;5.83;3.43;;;16.70;99.90;;;;;;5001047;28;20238;-82
2022/10/23 09:32:15;;;;;;;11.83;3.53;;;16.70;99.90;;;;;;5000885;28;20242;-82
2022/10/23 09:34:51;;;;;;;5.40;3.30;;;16.70;99.90;;;;;;5007651;28;20763;-82
2022/10/23 09:37:22;;;;;;;6.20;3.43;;;16.70;99.90;;;;;;5015329;28;20218;-82
2022/10/23 09:40:18;;;;;;;6.83;3.37;;;16.50;99.90;;;;;;5001670;28;20226;-82
2022/10/23 09:42:54;;;;;;;16.20;9.70;;;16.40;99.90;;;;;;5003820;28;20219;-82
2022/10/23 09:45:23;;;;;;;6.87;3.47;;;16.40;99.90;;;;;;5004797;28;20227;-82
2022/10/23 09:47:50;;;;;;;7.03;3.07;;;16.30;99.90;;;;;;5007119;28;20237;-82
2022/10/23 09:50:20;;;;;;;6.53;3.10;;;16.20;99.90;;;;;;5007498;28;20235;-82
2022/10/23 09:52:51;;;;;;;7.93;3.60;;;16.10;99.90;;;;;;5018816;28;20219;-82
2022/10/23 09:55:23;;;;;;;8.40;3.07;;;16.10;99.90;;;;;;4996998;28;20220;-82
2022/10/23 09:57:51;;;;;;;5.10;2.80;;;16.10;99.90;;;;;;5015884;28;20254;-81
2022/10/23 10:00:22;;;;;;;6.60;3.00;;;16.10;99.90;;;;;;5018517;28;21057;-82
2022/10/23 10:02:56;;;;;;;7.23;3.37;;;16.10;99.90;;;;;;5001498;28;20238;-82
2022/10/23 10:05:37;;;;;;;6.50;3.47;;;16.00;99.90;;;;;;5017121;28;20858;-82
2022/10/23 10:08:15;;;;;;;9.30;3.10;;;16.00;99.90;;;;;;5014922;28;20272;-82
2022/10/23 10:10:49;;;;;;;10.20;4.40;;;16.00;99.90;;;;;;5002299;28;20233;-82
2022/10/23 10:13:35;;;;;;;19.50;3.53;;;16.10;99.90;;;;;;5003716;28;20311;-82
2022/10/23 10:16:06;;;;;;;4.77;3.53;;;16.10;99.90;;;;;;5002159;28;20225;-82
2022/10/23 10:18:39;;;;;;;7.53;3.30;;;16.10;99.90;;;;;;4997460;28;20234;-83
2022/10/23 10:21:15;;;;;;;7.40;3.47;;;16.10;99.90;;;;;;5003867;28;20230;-83
2022/10/23 10:23:49;;;;;;;6.90;3.10;;;16.20;99.90;;;;;;4995404;28;20252;-81
2022/10/23 10:26:30;;;;;;;6.13;2.83;;;16.20;99.90;;;;;;4999074;28;20345;-81
2022/10/23 10:29:07;;;;;;;6.77;3.17;;;16.30;99.90;;;;;;5001018;28;20227;-83
2022/10/23 10:31:48;;;;;;;7.33;3.03;;;16.30;99.90;;;;;;5006045;28;20303;-84
2022/10/23 10:34:23;;;;;;;4.93;3.00;;;16.40;99.90;;;;;;5000677;28;20235;-84
2022/10/23 10:36:52;;;;;;;8.93;4.27;;;16.40;99.90;;;;;;4995346;28;20657;-84
2022/10/23 10:39:33;;;;;;;8.30;3.93;;;16.50;99.90;;;;;;4999207;28;20223;-84
2022/10/23 10:42:30;;;;;;;7.03;3.07;;;16.50;99.90;;;;;;5013747;28;20859;-83
2022/10/23 10:45:12;;;;;;;7.70;3.57;;;16.50;99.90;;;;;;4991762;28;20235;-83
2022/10/23 10:47:46;;;;;;;10.30;3.03;;;16.50;99.90;;;;;;4992538;28;20231;-82
2022/10/23 10:50:26;;;;;;;8.33;3.27;;;16.50;99.90;;;;;;5010258;28;20239;-83
2022/10/23 10:53:10;;;;;;;8.60;3.30;;;16.50;99.90;;;;;;5015215;28;20232;-83
2022/10/23 10:55:40;;;;;;;6.37;3.00;;;16.50;99.90;;;;;;4997389;28;20227;-82
2022/10/23 10:58:20;;;;;;;10.17;3.13;;;16.50;99.90;;;;;;4999080;28;20228;-83
2022/10/23 11:00:52;;;;;;;6.30;2.70;;;16.60;99.90;;;;;;4995512;28;20581;-83
2022/10/23 11:03:30;;;;;;;7.60;2.50;;;16.70;99.90;;;;;;4993470;28;20227;-83
2022/10/23 11:06:00;;;;;;;8.17;2.97;;;16.70;99.90;;;;;;5005231;28;20708;-82
2022/10/23 11:08:35;;;;;;;7.73;2.30;;;16.80;99.90;;;;;;5000370;28;20232;-83
2022/10/23 11:11:09;;;;;;;6.33;2.50;;;16.80;99.90;;;;;;4997792;28;20232;-83
2022/10/23 11:13:39;;;;;;;5.03;2.20;;;16.80;99.90;;;;;;5002808;28;20229;-82
2022/10/23 11:16:13;;;;;;;9.43;2.83;;;16.90;99.90;;;;;;5012627;28;20217;-83
2022/10/23 11:18:42;;;;;;;6.33;2.50;;;16.90;99.90;;;;;;5000108;28;20686;-83
2022/10/23 11:21:25;;;;;;;7.17;2.77;;;17.00;99.90;;;;;;4992588;28;20234;-83
2022/10/23 11:24:16;;;;;;;8.27;3.20;;;17.00;99.90;;;;;;5000690;28;20393;-82
2022/10/23 11:26:58;;;;;;;4.97;2.23;;;17.00;99.90;;;;;;4996104;28;20243;-83
2022/10/23 11:29:50;;;;;;;11.37;3.57;;;17.10;99.90;;;;;;5002991;28;20298;-83
2022/10/23 11:32:35;;;;;;;6.50;2.60;;;17.10;99.90;;;;;;5009493;28;20220;-84
2022/10/23 11:35:22;;;;;;;4.37;2.20;;;17.20;99.90;;;;;;5002070;28;20739;-84
2022/10/23 11:37:59;;;;;;;4.40;2.27;;;17.20;99.90;;;;;;5018098;28;20230;-83
2022/10/23 11:40:26;;;;;;;6.20;2.70;;;17.30;99.90;;;;;;5005521;28;20259;-83
2022/10/23 11:42:53;;;;;;;10.60;2.70;;;17.30;99.90;;;;;;5000005;28;20236;-83
2022/10/23 11:45:32;;;;;;;4.53;1.93;;;17.40;99.90;;;;;;4998258;28;20742;-82
2022/10/23 11:48:01;;;;;;;4.00;1.60;;;17.60;99.90;;;;;;5001632;28;20234;-82
2022/10/23 11:50:32;;;;;;;5.17;2.30;;;17.70;99.90;;;;;;5004105;28;20896;-83
2022/10/23 11:53:03;;;;;;;3.57;2.00;;;17.80;99.90;;;;;;5013097;28;20652;-83
2022/10/23 11:55:32;;;;;;;6.60;1.80;;;18.00;99.90;;;;;;5020895;28;20224;-83
2022/10/23 11:58:16;;;;;;;6.40;2.10;;;18.20;99.90;;;;;;5012785;28;20717;-83
2022/10/23 12:00:55;;;;;;;5.90;2.40;;;18.30;99.90;;;;;;5003358;28;20235;-83
2022/10/23 12:03:27;;;;;;;5.87;2.40;;;18.40;99.90;;;;;;5045867;22;21472;-78
2022/10/23 12:06:01;;;;;;;4.67;2.23;;;18.40;99.90;;;;;;5008569;28;20696;-79
2022/10/23 12:08:31;;;;;;;4.37;1.80;;;18.40;99.90;;;;;;5002985;28;20256;-78
2022/10/23 12:10:58;;;;;;;7.03;1.93;;;18.50;99.90;;;;;;5002827;28;20288;-80
2022/10/23 12:13:44;;;;;;;5.57;2.00;;;18.50;99.90;;;;;;5009722;28;20855;-80
2022/10/23 12:16:13;;;;;;;5.37;2.00;;;18.50;99.90;;;;;;5009547;28;20232;-80
2022/10/23 12:18:51;;;;;;;5.47;2.30;;;18.60;99.90;;;;;;5008945;28;20236;-80
2022/10/23 12:21:26;;;;;;;5.93;2.17;;;18.60;99.90;;;;;;4999736;28;20696;-78
2022/10/23 12:24:12;;;;;;;6.20;2.60;;;18.70;99.90;;;;;;5007051;28;20287;-77
2022/10/23 12:27:06;;;;;;;6.50;2.50;;;18.70;99.90;;;;;;5006575;28;20229;-78
2022/10/23 12:29:43;;;;;;;5.53;2.67;;;18.70;99.90;;;;;;5009498;28;20229;-77
2022/10/23 12:32:26;;;;;;;4.80;2.30;;;18.70;99.90;;;;;;5004750;28;20613;-77
2022/10/23 12:35:09;;;;;;;8.00;3.10;;;18.70;99.90;;;;;;5008308;28;20731;-77
2022/10/23 12:37:51;;;;;;;7.73;2.23;;;18.60;99.90;;;;;;4992096;28;20228;-77
2022/10/23 12:40:18;;;;;;;6.37;2.53;;;18.60;99.90;;;;;;4999514;28;20301;-77
2022/10/23 12:42:51;;;;;;;6.60;1.97;;;18.60;99.90;;;;;;4998832;28;20248;-77
2022/10/23 12:45:22;;;;;;;6.40;2.43;;;18.50;99.90;;;;;;4987070;28;20243;-78
2022/10/23 12:47:51;;;;;;;5.57;2.10;;;18.40;99.90;;;;;;4986511;28;20232;-78
2022/10/23 12:50:19;;;;;;;5.37;2.30;;;18.30;99.90;;;;;;4986635;28;20241;-78
2022/10/23 12:52:54;;;;;;;6.47;2.10;;;18.20;99.90;;;;;;5005875;28;20289;-78
2022/10/23 12:55:21;;;;;;;4.83;2.00;;;18.10;99.90;;;;;;4988261;28;20320;-77
2022/10/23 12:57:48;;;;;;;6.10;2.47;;;18.00;99.90;;;;;;4989026;28;20336;-78
2022/10/23 13:00:17;;;;;;;4.43;2.10;;;17.90;99.90;;;;;;4991199;28;20224;-77
2022/10/23 13:02:44;;;;;;;5.37;2.20;;;17.90;99.90;;;;;;5004727;28;20319;-77
2022/10/23 13:05:17;;;;;;;3.33;2.10;;;17.80;99.90;;;;;;5004951;28;20241;-78
2022/10/23 13:07:46;;;;;;;5.97;2.40;;;17.80;99.90;;;;;;5006613;28;20244;-79
2022/10/23 13:10:18;;;;;;;9.43;2.90;;;17.80;99.90;;;;;;5020294;28;20229;-79
2022/10/23 13:12:55;;;;;;;7.97;2.67;;;17.80;99.90;;;;;;5006747;28;20365;-78